sensor_id;sensor_type;location;lat;lon;timestamp;pressure;altitude;pressure_sealevel;temperature;humidity
42811;BME280;28457;55.680;37.656;2022-08-01T00:01:23;100197.09;;;21.14;44.29
42811;BME280;28457;55.680;37.656;2022-08-01T00:03:52;100200.66;;;21.15;44.56
42811;BME280;28457;55.680;37.656;2022-08-01T00:06:20;100199.81;;;21.14;44.84
42811;BME280;28457;55.680;37.656;2022-08-01T00:08:49;100197.91;;;21.15;44.98
42811;BME280;28457;55.680;37.656;2022-08-01T00:11:19;100194.34;;;21.14;45.07
42811;BME280;28457;55.680;37.656;2022-08-01T00:13:47;100190.78;;;21.14;44.63
42811;BME280;28457;55.680;37.656;2022-08-01T00:16:16;100189.38;;;21.11;45.13
42811;BME280;28457;55.680;37.656;2022-08-01T00:18:44;100187.13;;;21.08;45.45
42811;BME280;28457;55.680;37.656;2022-08-01T00:21:13;100187.41;;;21.07;45.61
42811;BME280;28457;55.680;37.656;2022-08-01T00:23:41;100184.06;;;21.04;45.59
42811;BME280;28457;55.680;37.656;2022-08-01T00:26:10;100176.34;;;21.01;45.66
42811;BME280;28457;55.680;37.656;2022-08-01T00:28:40;100177.72;;;20.99;45.76
42811;BME280;28457;55.680;37.656;2022-08-01T00:31:09;100182.59;;;20.97;45.68
42811;BME280;28457;55.680;37.656;2022-08-01T00:33:37;100183.94;;;20.94;46.11
42811;BME280;28457;55.680;37.656;2022-08-01T00:36:06;100186.94;;;20.93;46.28
42811;BME280;28457;55.680;37.656;2022-08-01T00:38:34;100188.25;;;20.90;46.29
42811;BME280;28457;55.680;37.656;2022-08-01T00:41:03;100185.78;;;20.89;46.25
42811;BME280;28457;55.680;37.656;2022-08-01T00:43:31;100182.44;;;20.87;46.15
42811;BME280;28457;55.680;37.656;2022-08-01T00:46:01;100187.09;;;20.86;46.07
42811;BME280;28457;55.680;37.656;2022-08-01T00:48:30;100189.50;;;20.83;45.74
42811;BME280;28457;55.680;37.656;2022-08-01T00:50:58;100185.38;;;20.80;45.96
42811;BME280;28457;55.680;37.656;2022-08-01T00:53:27;100185.63;;;20.78;46.21
42811;BME280;28457;55.680;37.656;2022-08-01T00:56:15;100188.84;;;20.75;45.95
42811;BME280;28457;55.680;37.656;2022-08-01T00:58:44;100188.28;;;20.73;46.38
42811;BME280;28457;55.680;37.656;2022-08-01T01:01:17;100189.34;;;20.72;46.54
42811;BME280;28457;55.680;37.656;2022-08-01T01:03:48;100188.19;;;20.68;46.53
42811;BME280;28457;55.680;37.656;2022-08-01T01:06:30;100188.69;;;20.65;46.78
42811;BME280;28457;55.680;37.656;2022-08-01T01:09:17;100190.84;;;20.63;46.76
42811;BME280;28457;55.680;37.656;2022-08-01T01:11:52;100187.78;;;20.60;46.56
42811;BME280;28457;55.680;37.656;2022-08-01T01:14:32;100185.56;;;20.56;46.92
42811;BME280;28457;55.680;37.656;2022-08-01T01:17:06;100183.06;;;20.55;47.43
42811;BME280;28457;55.680;37.656;2022-08-01T01:19:39;100185.22;;;20.53;47.28
42811;BME280;28457;55.680;37.656;2022-08-01T01:22:24;100179.41;;;20.49;47.57
42811;BME280;28457;55.680;37.656;2022-08-01T01:25:08;100176.06;;;20.47;47.70
42811;BME280;28457;55.680;37.656;2022-08-01T01:27:45;100178.47;;;20.44;47.53
42811;BME280;28457;55.680;37.656;2022-08-01T01:30:19;100185.03;;;20.43;47.20
42811;BME280;28457;55.680;37.656;2022-08-01T01:32:52;100186.34;;;20.40;47.15
42811;BME280;28457;55.680;37.656;2022-08-01T01:35:24;100183.63;;;20.40;47.21
42811;BME280;28457;55.680;37.656;2022-08-01T01:37:57;100185.75;;;20.38;47.28
42811;BME280;28457;55.680;37.656;2022-08-01T01:40:27;100178.63;;;20.37;47.47
42811;BME280;28457;55.680;37.656;2022-08-01T01:42:57;100187.34;;;20.34;47.37
42811;BME280;28457;55.680;37.656;2022-08-01T01:45:28;100181.28;;;20.32;47.34
42811;BME280;28457;55.680;37.656;2022-08-01T01:47:58;100182.63;;;20.29;47.11
42811;BME280;28457;55.680;37.656;2022-08-01T01:50:28;100181.78;;;20.29;47.60
42811;BME280;28457;55.680;37.656;2022-08-01T01:52:58;100185.00;;;20.26;47.85
42811;BME280;28457;55.680;37.656;2022-08-01T01:55:28;100189.66;;;20.25;48.04
42811;BME280;28457;55.680;37.656;2022-08-01T01:57:57;100180.03;;;20.23;48.20
42811;BME280;28457;55.680;37.656;2022-08-01T02:00:29;100183.03;;;20.21;48.18
42811;BME280;28457;55.680;37.656;2022-08-01T02:03:02;100186.81;;;20.20;48.22
42811;BME280;28457;55.680;37.656;2022-08-01T02:05:33;100180.19;;;20.16;48.35
42811;BME280;28457;55.680;37.656;2022-08-01T02:08:04;100191.13;;;20.16;49.01
42811;BME280;28457;55.680;37.656;2022-08-01T02:10:35;100187.00;;;20.14;49.46
42811;BME280;28457;55.680;37.656;2022-08-01T02:13:05;100187.81;;;20.14;49.47
42811;BME280;28457;55.680;37.656;2022-08-01T02:15:36;100191.63;;;20.13;49.51
42811;BME280;28457;55.680;37.656;2022-08-01T02:18:25;100187.50;;;20.11;49.73
42811;BME280;28457;55.680;37.656;2022-08-01T02:20:54;100189.41;;;20.10;50.12
42811;BME280;28457;55.680;37.656;2022-08-01T02:23:28;100178.94;;;20.07;50.23
42811;BME280;28457;55.680;37.656;2022-08-01T02:26:00;100181.91;;;20.05;49.44
42811;BME280;28457;55.680;37.656;2022-08-01T02:28:42;100190.59;;;20.02;49.33
42811;BME280;28457;55.680;37.656;2022-08-01T02:31:14;100181.97;;;19.94;47.84
42811;BME280;28457;55.680;37.656;2022-08-01T02:33:50;100180.56;;;19.91;47.73
42811;BME280;28457;55.680;37.656;2022-08-01T02:36:21;100180.47;;;19.86;47.72
42811;BME280;28457;55.680;37.656;2022-08-01T02:39:00;100185.13;;;19.85;47.67
42811;BME280;28457;55.680;37.656;2022-08-01T02:41:30;100192.38;;;19.80;47.76
42811;BME280;28457;55.680;37.656;2022-08-01T02:44:03;100192.13;;;19.81;47.64
42811;BME280;28457;55.680;37.656;2022-08-01T02:46:37;100191.97;;;19.88;48.29
42811;BME280;28457;55.680;37.656;2022-08-01T02:49:09;100182.72;;;19.89;48.18
42811;BME280;28457;55.680;37.656;2022-08-01T02:51:39;100187.72;;;19.92;49.92
42811;BME280;28457;55.680;37.656;2022-08-01T02:54:09;100188.41;;;19.88;49.73
42811;BME280;28457;55.680;37.656;2022-08-01T02:56:40;100185.13;;;19.85;48.72
42811;BME280;28457;55.680;37.656;2022-08-01T02:59:12;100182.13;;;19.87;48.32
42811;BME280;28457;55.680;37.656;2022-08-01T03:01:49;100189.03;;;19.90;48.30
42811;BME280;28457;55.680;37.656;2022-08-01T03:04:22;100184.63;;;19.89;48.45
42811;BME280;28457;55.680;37.656;2022-08-01T03:06:51;100191.00;;;19.94;49.18
42811;BME280;28457;55.680;37.656;2022-08-01T03:09:21;100191.34;;;19.98;50.13
42811;BME280;28457;55.680;37.656;2022-08-01T03:11:51;100191.94;;;20.00;50.42
42811;BME280;28457;55.680;37.656;2022-08-01T03:14:21;100191.47;;;20.03;50.12
42811;BME280;28457;55.680;37.656;2022-08-01T03:16:54;100193.19;;;20.09;50.44
42811;BME280;28457;55.680;37.656;2022-08-01T03:19:25;100190.78;;;20.13;49.36
42811;BME280;28457;55.680;37.656;2022-08-01T03:21:56;100187.56;;;20.16;48.60
42811;BME280;28457;55.680;37.656;2022-08-01T03:24:27;100195.03;;;20.20;49.06
42811;BME280;28457;55.680;37.656;2022-08-01T03:26:56;100189.88;;;20.24;48.85
42811;BME280;28457;55.680;37.656;2022-08-01T03:29:27;100194.03;;;20.26;48.09
42811;BME280;28457;55.680;37.656;2022-08-01T03:32:00;100188.91;;;20.30;49.60
42811;BME280;28457;55.680;37.656;2022-08-01T03:34:30;100191.31;;;20.26;48.65
42811;BME280;28457;55.680;37.656;2022-08-01T03:37:03;100184.25;;;20.30;47.91
42811;BME280;28457;55.680;37.656;2022-08-01T03:39:38;100187.34;;;20.34;47.82
42811;BME280;28457;55.680;37.656;2022-08-01T03:42:13;100181.63;;;20.36;47.63
42811;BME280;28457;55.680;37.656;2022-08-01T03:44:48;100180.88;;;20.40;47.33
42811;BME280;28457;55.680;37.656;2022-08-01T03:47:21;100173.25;;;20.42;47.45
42811;BME280;28457;55.680;37.656;2022-08-01T03:49:53;100178.13;;;20.40;46.98
42811;BME280;28457;55.680;37.656;2022-08-01T03:52:24;100177.66;;;20.43;47.24
42811;BME280;28457;55.680;37.656;2022-08-01T03:54:55;100174.16;;;20.48;47.13
42811;BME280;28457;55.680;37.656;2022-08-01T03:57:28;100175.34;;;20.52;47.30
42811;BME280;28457;55.680;37.656;2022-08-01T04:00:04;100171.63;;;20.58;48.64
42811;BME280;28457;55.680;37.656;2022-08-01T04:02:40;100177.16;;;20.63;47.79
42811;BME280;28457;55.680;37.656;2022-08-01T04:05:10;100175.59;;;20.67;47.76
42811;BME280;28457;55.680;37.656;2022-08-01T04:07:39;100178.66;;;20.71;47.77
42811;BME280;28457;55.680;37.656;2022-08-01T04:10:09;100170.53;;;20.76;47.67
42811;BME280;28457;55.680;37.656;2022-08-01T04:12:39;100175.50;;;20.79;46.73
42811;BME280;28457;55.680;37.656;2022-08-01T04:15:08;100176.91;;;20.82;47.03
42811;BME280;28457;55.680;37.656;2022-08-01T04:17:36;100173.66;;;20.85;47.82
42811;BME280;28457;55.680;37.656;2022-08-01T04:20:07;100169.75;;;20.80;47.29
42811;BME280;28457;55.680;37.656;2022-08-01T04:22:37;100178.28;;;20.84;46.60
42811;BME280;28457;55.680;37.656;2022-08-01T04:25:11;100181.03;;;20.84;47.06
42811;BME280;28457;55.680;37.656;2022-08-01T04:27:43;100177.66;;;20.77;46.40
42811;BME280;28457;55.680;37.656;2022-08-01T04:30:17;100178.56;;;20.83;46.34
42811;BME280;28457;55.680;37.656;2022-08-01T04:32:49;100179.31;;;20.78;46.44
42811;BME280;28457;55.680;37.656;2022-08-01T04:35:20;100184.03;;;20.83;46.90
42811;BME280;28457;55.680;37.656;2022-08-01T04:38:10;100176.97;;;20.87;47.88
42811;BME280;28457;55.680;37.656;2022-08-01T04:40:41;100177.56;;;20.89;47.47
42811;BME280;28457;55.680;37.656;2022-08-01T04:43:11;100178.38;;;20.89;46.78
42811;BME280;28457;55.680;37.656;2022-08-01T04:45:42;100183.59;;;20.91;46.37
42811;BME280;28457;55.680;37.656;2022-08-01T04:48:12;100174.88;;;20.94;46.84
42811;BME280;28457;55.680;37.656;2022-08-01T04:50:43;100180.97;;;20.96;46.26
42811;BME280;28457;55.680;37.656;2022-08-01T04:53:15;100184.75;;;20.95;45.89
42811;BME280;28457;55.680;37.656;2022-08-01T04:55:44;100178.78;;;20.98;45.95
42811;BME280;28457;55.680;37.656;2022-08-01T04:58:14;100188.41;;;21.00;45.55
42811;BME280;28457;55.680;37.656;2022-08-01T05:00:45;100179.19;;;21.07;45.36
42811;BME280;28457;55.680;37.656;2022-08-01T05:03:14;100182.81;;;21.12;45.87
42811;BME280;28457;55.680;37.656;2022-08-01T05:05:44;100193.84;;;21.17;45.79
42811;BME280;28457;55.680;37.656;2022-08-01T05:08:13;100189.00;;;21.24;45.69
42811;BME280;28457;55.680;37.656;2022-08-01T05:10:42;100194.22;;;21.26;45.43
42811;BME280;28457;55.680;37.656;2022-08-01T05:13:10;100188.81;;;21.31;45.02
42811;BME280;28457;55.680;37.656;2022-08-01T05:15:39;100188.09;;;21.36;44.86
42811;BME280;28457;55.680;37.656;2022-08-01T05:18:08;100192.28;;;21.43;44.80
42811;BME280;28457;55.680;37.656;2022-08-01T05:20:36;100191.84;;;21.51;45.04
42811;BME280;28457;55.680;37.656;2022-08-01T05:23:06;100183.94;;;21.55;45.03
42811;BME280;28457;55.680;37.656;2022-08-01T05:25:55;100182.56;;;21.52;43.61
42811;BME280;28457;55.680;37.656;2022-08-01T05:28:24;100190.50;;;21.54;42.42
42811;BME280;28457;55.680;37.656;2022-08-01T05:30:53;100182.59;;;21.58;42.20
42811;BME280;28457;55.680;37.656;2022-08-01T05:33:23;100184.56;;;21.62;42.62
42811;BME280;28457;55.680;37.656;2022-08-01T05:35:51;100181.38;;;21.70;41.82
42811;BME280;28457;55.680;37.656;2022-08-01T05:38:21;100178.38;;;21.72;42.10
42811;BME280;28457;55.680;37.656;2022-08-01T05:40:50;100182.31;;;21.81;42.37
42811;BME280;28457;55.680;37.656;2022-08-01T05:43:19;100173.03;;;21.87;41.76
42811;BME280;28457;55.680;37.656;2022-08-01T05:45:54;100168.19;;;21.94;42.06
42811;BME280;28457;55.680;37.656;2022-08-01T05:48:22;100173.22;;;22.03;41.85
42811;BME280;28457;55.680;37.656;2022-08-01T05:50:51;100174.91;;;22.09;41.78
42811;BME280;28457;55.680;37.656;2022-08-01T05:53:26;100175.44;;;22.06;40.65
42811;BME280;28457;55.680;37.656;2022-08-01T05:55:54;100173.84;;;22.10;40.94
42811;BME280;28457;55.680;37.656;2022-08-01T05:58:23;100167.06;;;22.17;41.42
42811;BME280;28457;55.680;37.656;2022-08-01T06:00:52;100175.34;;;22.22;41.10
42811;BME280;28457;55.680;37.656;2022-08-01T06:03:20;100172.69;;;22.33;41.43
42811;BME280;28457;55.680;37.656;2022-08-01T06:05:48;100171.91;;;22.37;40.51
42811;BME280;28457;55.680;37.656;2022-08-01T06:08:17;100173.06;;;22.41;40.52
42811;BME280;28457;55.680;37.656;2022-08-01T06:10:47;100171.72;;;22.49;40.14
42811;BME280;28457;55.680;37.656;2022-08-01T06:13:15;100176.16;;;22.55;40.28
42811;BME280;28457;55.680;37.656;2022-08-01T06:15:46;100168.28;;;22.64;40.70
42811;BME280;28457;55.680;37.656;2022-08-01T06:18:15;100175.47;;;22.70;40.68
42811;BME280;28457;55.680;37.656;2022-08-01T06:20:43;100174.38;;;22.71;40.27
42811;BME280;28457;55.680;37.656;2022-08-01T06:23:12;100172.22;;;22.78;40.28
42811;BME280;28457;55.680;37.656;2022-08-01T06:26:00;100175.25;;;22.82;40.00
42811;BME280;28457;55.680;37.656;2022-08-01T06:28:29;100172.53;;;22.87;40.26
42811;BME280;28457;55.680;37.656;2022-08-01T06:30:57;100175.34;;;22.92;40.72
42811;BME280;28457;55.680;37.656;2022-08-01T06:33:27;100175.91;;;22.94;39.83
42811;BME280;28457;55.680;37.656;2022-08-01T06:35:55;100180.88;;;22.97;40.27
42811;BME280;28457;55.680;37.656;2022-08-01T06:38:24;100180.63;;;22.99;40.52
42811;BME280;28457;55.680;37.656;2022-08-01T06:40:52;100177.88;;;23.04;40.54
42811;BME280;28457;55.680;37.656;2022-08-01T06:43:22;100186.19;;;23.09;40.08
42811;BME280;28457;55.680;37.656;2022-08-01T06:45:51;100179.59;;;23.10;39.91
42811;BME280;28457;55.680;37.656;2022-08-01T06:48:19;100180.72;;;23.19;40.08
42811;BME280;28457;55.680;37.656;2022-08-01T06:50:48;100173.91;;;23.27;39.74
42811;BME280;28457;55.680;37.656;2022-08-01T06:53:36;100179.69;;;23.30;38.67
42811;BME280;28457;55.680;37.656;2022-08-01T06:56:06;100182.44;;;23.35;38.51
42811;BME280;28457;55.680;37.656;2022-08-01T06:58:37;100181.63;;;23.40;37.38
42811;BME280;28457;55.680;37.656;2022-08-01T07:01:05;100184.13;;;23.47;38.39
42811;BME280;28457;55.680;37.656;2022-08-01T07:03:35;100184.47;;;23.55;38.52
42811;BME280;28457;55.680;37.656;2022-08-01T07:06:20;100183.91;;;23.58;38.31
42811;BME280;28457;55.680;37.656;2022-08-01T07:08:48;100183.97;;;23.69;39.33
42811;BME280;28457;55.680;37.656;2022-08-01T07:11:17;100180.16;;;23.75;38.25
42811;BME280;28457;55.680;37.656;2022-08-01T07:13:47;100185.69;;;23.85;38.32
42811;BME280;28457;55.680;37.656;2022-08-01T07:16:16;100196.69;;;23.90;37.94
42811;BME280;28457;55.680;37.656;2022-08-01T07:18:45;100189.53;;;23.94;37.96
42811;BME280;28457;55.680;37.656;2022-08-01T07:21:13;100197.53;;;24.01;37.83
42811;BME280;28457;55.680;37.656;2022-08-01T07:24:02;100188.75;;;24.09;38.65
42811;BME280;28457;55.680;37.656;2022-08-01T07:26:41;100188.47;;;24.10;37.98
42811;BME280;28457;55.680;37.656;2022-08-01T07:29:23;100178.84;;;24.18;38.45
42811;BME280;28457;55.680;37.656;2022-08-01T07:31:52;100176.38;;;24.27;38.63
42811;BME280;28457;55.680;37.656;2022-08-01T07:34:21;100183.81;;;24.31;38.80
42811;BME280;28457;55.680;37.656;2022-08-01T07:36:50;100178.03;;;24.38;38.17
42811;BME280;28457;55.680;37.656;2022-08-01T07:39:19;100181.63;;;24.44;38.06
42811;BME280;28457;55.680;37.656;2022-08-01T07:41:48;100171.47;;;24.49;37.35
42811;BME280;28457;55.680;37.656;2022-08-01T07:44:36;100173.94;;;24.56;37.31
42811;BME280;28457;55.680;37.656;2022-08-01T07:47:05;100170.34;;;24.60;37.01
42811;BME280;28457;55.680;37.656;2022-08-01T07:49:35;100173.09;;;24.66;36.92
42811;BME280;28457;55.680;37.656;2022-08-01T07:52:07;100172.53;;;24.74;37.50
42811;BME280;28457;55.680;37.656;2022-08-01T07:54:36;100167.81;;;24.79;37.33
42811;BME280;28457;55.680;37.656;2022-08-01T07:57:04;100173.63;;;24.88;37.50
42811;BME280;28457;55.680;37.656;2022-08-01T07:59:35;100163.94;;;24.96;36.59
42811;BME280;28457;55.680;37.656;2022-08-01T08:02:04;100171.38;;;25.00;36.46
42811;BME280;28457;55.680;37.656;2022-08-01T08:04:33;100171.91;;;25.07;36.50
42811;BME280;28457;55.680;37.656;2022-08-01T08:07:02;100171.09;;;25.17;38.94
42811;BME280;28457;55.680;37.656;2022-08-01T08:09:31;100168.31;;;25.22;35.98
42811;BME280;28457;55.680;37.656;2022-08-01T08:12:05;100176.03;;;25.20;35.34
42811;BME280;28457;55.680;37.656;2022-08-01T08:14:36;100169.97;;;25.18;34.46
42811;BME280;28457;55.680;37.656;2022-08-01T08:17:05;100170.22;;;25.22;34.61
42811;BME280;28457;55.680;37.656;2022-08-01T08:19:34;100172.16;;;25.26;34.84
42811;BME280;28457;55.680;37.656;2022-08-01T08:22:06;100171.06;;;25.27;34.68
42811;BME280;28457;55.680;37.656;2022-08-01T08:24:36;100165.25;;;25.34;36.24
42811;BME280;28457;55.680;37.656;2022-08-01T08:27:12;100163.53;;;25.43;35.39
42811;BME280;28457;55.680;37.656;2022-08-01T08:29:42;100166.03;;;25.45;35.16
42811;BME280;28457;55.680;37.656;2022-08-01T08:32:11;100169.81;;;25.54;35.96
42811;BME280;28457;55.680;37.656;2022-08-01T08:34:40;100167.31;;;25.58;35.21
42811;BME280;28457;55.680;37.656;2022-08-01T08:37:09;100160.13;;;25.67;35.81
42811;BME280;28457;55.680;37.656;2022-08-01T08:39:38;100158.69;;;25.74;35.35
42811;BME280;28457;55.680;37.656;2022-08-01T08:42:08;100158.66;;;25.85;36.49
42811;BME280;28457;55.680;37.656;2022-08-01T08:44:38;100156.41;;;25.92;36.30
42811;BME280;28457;55.680;37.656;2022-08-01T08:47:13;100159.13;;;25.97;34.95
42811;BME280;28457;55.680;37.656;2022-08-01T08:49:47;100146.94;;;26.03;34.80
42811;BME280;28457;55.680;37.656;2022-08-01T08:52:19;100145.78;;;26.09;35.39
42811;BME280;28457;55.680;37.656;2022-08-01T08:54:49;100145.50;;;26.11;34.24
42811;BME280;28457;55.680;37.656;2022-08-01T08:57:19;100142.16;;;26.14;33.82
42811;BME280;28457;55.680;37.656;2022-08-01T08:59:49;100139.94;;;26.16;32.40
42811;BME280;28457;55.680;37.656;2022-08-01T09:02:20;100140.16;;;26.24;33.30
42811;BME280;28457;55.680;37.656;2022-08-01T09:04:50;100146.47;;;26.30;31.64
42811;BME280;28457;55.680;37.656;2022-08-01T09:07:19;100142.50;;;26.41;32.42
42811;BME280;28457;55.680;37.656;2022-08-01T09:09:47;100141.06;;;26.49;31.53
42811;BME280;28457;55.680;37.656;2022-08-01T09:12:18;100131.81;;;26.64;30.56
42811;BME280;28457;55.680;37.656;2022-08-01T09:14:47;100131.38;;;26.81;32.36
42811;BME280;28457;55.680;37.656;2022-08-01T09:17:17;100131.97;;;27.02;30.99
42811;BME280;28457;55.680;37.656;2022-08-01T09:19:49;100131.63;;;27.32;27.88
42811;BME280;28457;55.680;37.656;2022-08-01T09:22:23;100124.63;;;27.59;29.50
42811;BME280;28457;55.680;37.656;2022-08-01T09:25:00;100127.03;;;27.84;29.21
42811;BME280;28457;55.680;37.656;2022-08-01T09:27:29;100127.19;;;27.93;29.84
42811;BME280;28457;55.680;37.656;2022-08-01T09:30:08;100123.94;;;28.43;28.45
42811;BME280;28457;55.680;37.656;2022-08-01T09:32:52;100117.25;;;29.04;28.12
42811;BME280;28457;55.680;37.656;2022-08-01T09:35:27;100114.59;;;29.49;27.14
42811;BME280;28457;55.680;37.656;2022-08-01T09:38:13;100119.94;;;29.95;27.85
42811;BME280;28457;55.680;37.656;2022-08-01T09:40:55;100116.91;;;30.19;26.01
42811;BME280;28457;55.680;37.656;2022-08-01T09:43:26;100116.13;;;30.27;26.29
42811;BME280;28457;55.680;37.656;2022-08-01T09:45:55;100121.25;;;30.34;26.12
42811;BME280;28457;55.680;37.656;2022-08-01T09:48:25;100115.97;;;30.77;25.21
42811;BME280;28457;55.680;37.656;2022-08-01T09:50:58;100120.59;;;30.60;25.13
42811;BME280;28457;55.680;37.656;2022-08-01T09:53:46;100110.13;;;30.34;25.44
42811;BME280;28457;55.680;37.656;2022-08-01T09:56:20;100120.00;;;30.18;26.00
42811;BME280;28457;55.680;37.656;2022-08-01T09:58:51;100105.25;;;29.95;25.92
42811;BME280;28457;55.680;37.656;2022-08-01T10:01:26;100108.16;;;30.12;25.16
42811;BME280;28457;55.680;37.656;2022-08-01T10:04:05;100104.94;;;29.96;25.53
42811;BME280;28457;55.680;37.656;2022-08-01T10:06:39;100100.50;;;29.95;25.97
42811;BME280;28457;55.680;37.656;2022-08-01T10:09:11;100107.59;;;30.01;25.77
42811;BME280;28457;55.680;37.656;2022-08-01T10:11:42;100107.63;;;29.88;27.01
42811;BME280;28457;55.680;37.656;2022-08-01T10:14:11;100116.28;;;29.64;25.68
42811;BME280;28457;55.680;37.656;2022-08-01T10:16:45;100107.94;;;29.64;26.22
42811;BME280;28457;55.680;37.656;2022-08-01T10:19:22;100109.63;;;29.73;27.66
42811;BME280;28457;55.680;37.656;2022-08-01T10:21:57;100108.53;;;29.74;27.69
42811;BME280;28457;55.680;37.656;2022-08-01T10:24:29;100111.00;;;29.62;26.14
42811;BME280;28457;55.680;37.656;2022-08-01T10:27:03;100109.81;;;29.41;26.36
42811;BME280;28457;55.680;37.656;2022-08-01T10:29:40;100103.00;;;29.47;27.03
42811;BME280;28457;55.680;37.656;2022-08-01T10:32:31;100101.19;;;29.42;26.84
42811;BME280;28457;55.680;37.656;2022-08-01T10:35:02;100104.66;;;29.34;26.54
42811;BME280;28457;55.680;37.656;2022-08-01T10:37:34;100108.06;;;29.17;27.40
42811;BME280;28457;55.680;37.656;2022-08-01T10:40:18;100095.75;;;29.09;26.31
42811;BME280;28457;55.680;37.656;2022-08-01T10:42:58;100095.97;;;29.13;27.46
42811;BME280;28457;55.680;37.656;2022-08-01T10:45:27;100098.31;;;29.06;28.60
42811;BME280;28457;55.680;37.656;2022-08-01T10:48:03;100094.41;;;28.93;27.18
42811;BME280;28457;55.680;37.656;2022-08-01T10:50:36;100087.22;;;28.78;27.27
42811;BME280;28457;55.680;37.656;2022-08-01T10:53:13;100084.34;;;28.70;27.13
42811;BME280;28457;55.680;37.656;2022-08-01T10:55:59;100083.19;;;28.71;28.63
42811;BME280;28457;55.680;37.656;2022-08-01T10:58:31;100091.22;;;28.72;29.17
42811;BME280;28457;55.680;37.656;2022-08-01T11:01:15;100080.75;;;28.69;27.63
42811;BME280;28457;55.680;37.656;2022-08-01T11:03:57;100077.44;;;28.67;28.84
42811;BME280;28457;55.680;37.656;2022-08-01T11:06:36;100077.22;;;28.63;29.24
42811;BME280;28457;55.680;37.656;2022-08-01T11:09:22;100087.59;;;28.44;28.27
42811;BME280;28457;55.680;37.656;2022-08-01T11:12:06;100081.06;;;28.35;27.53
42811;BME280;28457;55.680;37.656;2022-08-01T11:17:59;100071.41;;;28.19;28.21
42811;BME280;28457;55.680;37.656;2022-08-01T11:20:30;100063.91;;;28.19;28.94
42811;BME280;28457;55.680;37.656;2022-08-01T11:23:27;100067.19;;;28.21;29.33
42811;BME280;28457;55.680;37.656;2022-08-01T11:26:12;100057.16;;;28.25;29.36
42811;BME280;28457;55.680;37.656;2022-08-01T11:28:45;100059.59;;;28.27;29.55
42811;BME280;28457;55.680;37.656;2022-08-01T11:31:34;100053.84;;;28.23;28.25
42811;BME280;28457;55.680;37.656;2022-08-01T11:34:04;100048.25;;;28.28;29.18
42811;BME280;28457;55.680;37.656;2022-08-01T11:36:33;100054.88;;;28.27;27.66
42811;BME280;28457;55.680;37.656;2022-08-01T11:39:21;100053.00;;;28.09;28.77
42811;BME280;28457;55.680;37.656;2022-08-01T11:41:52;100051.66;;;28.06;27.90
42811;BME280;28457;55.680;37.656;2022-08-01T11:44:23;100058.81;;;27.93;27.87
42811;BME280;28457;55.680;37.656;2022-08-01T11:47:01;100052.47;;;27.93;28.25
42811;BME280;28457;55.680;37.656;2022-08-01T11:49:56;100047.03;;;28.02;27.39
42811;BME280;28457;55.680;37.656;2022-08-01T11:52:28;100046.66;;;28.08;27.66
42811;BME280;28457;55.680;37.656;2022-08-01T11:55:03;100047.06;;;28.15;29.14
42811;BME280;28457;55.680;37.656;2022-08-01T11:57:38;100038.97;;;28.19;29.29
42811;BME280;28457;55.680;37.656;2022-08-01T12:00:11;100041.56;;;28.29;29.60
42811;BME280;28457;55.680;37.656;2022-08-01T12:02:43;100042.53;;;28.38;29.27
42811;BME280;28457;55.680;37.656;2022-08-01T12:05:13;100033.09;;;28.39;28.80
42811;BME280;28457;55.680;37.656;2022-08-01T12:07:44;100028.75;;;28.33;28.27
42811;BME280;28457;55.680;37.656;2022-08-01T12:10:14;100035.91;;;28.34;29.00
42811;BME280;28457;55.680;37.656;2022-08-01T12:12:46;100035.09;;;28.34;28.13
42811;BME280;28457;55.680;37.656;2022-08-01T12:15:16;100036.09;;;28.24;28.21
42811;BME280;28457;55.680;37.656;2022-08-01T12:17:46;100047.91;;;28.16;27.27
42811;BME280;28457;55.680;37.656;2022-08-01T12:20:28;100053.91;;;28.04;28.06
42811;BME280;28457;55.680;37.656;2022-08-01T12:22:59;100042.91;;;27.99;28.08
42811;BME280;28457;55.680;37.656;2022-08-01T12:25:28;100041.16;;;27.89;28.11
42811;BME280;28457;55.680;37.656;2022-08-01T12:28:01;100045.50;;;27.77;28.55
42811;BME280;28457;55.680;37.656;2022-08-01T12:30:31;100046.19;;;27.68;28.23
42811;BME280;28457;55.680;37.656;2022-08-01T12:33:04;100039.06;;;27.62;28.80
42811;BME280;28457;55.680;37.656;2022-08-01T12:35:34;100036.63;;;27.61;28.80
42811;BME280;28457;55.680;37.656;2022-08-01T12:38:06;100042.53;;;27.54;29.31
42811;BME280;28457;55.680;37.656;2022-08-01T12:40:40;100033.69;;;27.52;28.08
42811;BME280;28457;55.680;37.656;2022-08-01T12:43:16;100029.88;;;27.48;28.71
42811;BME280;28457;55.680;37.656;2022-08-01T12:45:56;100034.66;;;27.42;28.37
42811;BME280;28457;55.680;37.656;2022-08-01T12:48:27;100027.78;;;27.40;28.93
42811;BME280;28457;55.680;37.656;2022-08-01T12:50:56;100026.66;;;27.41;28.28
42811;BME280;28457;55.680;37.656;2022-08-01T12:53:28;100030.84;;;27.38;29.30
42811;BME280;28457;55.680;37.656;2022-08-01T12:56:07;100031.63;;;27.25;28.73
42811;BME280;28457;55.680;37.656;2022-08-01T12:58:39;100024.50;;;27.38;30.18
42811;BME280;28457;55.680;37.656;2022-08-01T13:01:09;100028.06;;;27.38;28.83
42811;BME280;28457;55.680;37.656;2022-08-01T13:03:39;100016.41;;;27.41;28.51
42811;BME280;28457;55.680;37.656;2022-08-01T13:06:12;100014.91;;;27.49;29.31
42811;BME280;28457;55.680;37.656;2022-08-01T13:08:43;100007.97;;;27.52;28.49
42811;BME280;28457;55.680;37.656;2022-08-01T13:11:14;100005.09;;;27.57;28.72